Time;durP1;ratioP1;P1;durP2;ratioP2;P2;SDS_P1;SDS_P2;PMS_P1;PMS_P2;Temp;Humidity;BMP_temperature;BMP_pressure;BME280_temperature;BME280_humidity;BME280_pressure;Samples;Min_cycle;Max_cycle;Signal;HPM_P1;HPM_P2
2022/04/25 00:00:55;;;;;;;;;;;;;;;17.28;41.02;100242.00;5100274;28;1261;-63
2022/04/25 00:03:21;;;;;;;;;;;;;;;17.20;40.18;100240.72;5106905;28;1181;-63
2022/04/25 00:05:46;;;;;;;;;;;;;;;17.09;39.99;100233.69;5107426;28;1261;-63
2022/04/25 00:08:12;;;;;;;;;;;;;;;17.00;39.98;100235.41;5097515;28;1415;-63
2022/04/25 00:10:37;;;;;;;;;;;;;;;16.98;39.47;100232.16;5101408;28;833;-64
2022/04/25 00:13:03;;;;;;;;;;;;;;;16.87;39.76;100236.88;5116270;28;1044;-63
2022/04/25 00:15:29;;;;;;;;;;;;;;;16.89;40.17;100234.72;5116217;28;931;-64
2022/04/25 00:17:54;;;;;;;;;;;;;;;17.04;40.75;100240.06;5106371;28;1917;-63
2022/04/25 00:20:20;;;;;;;;;;;;;;;17.16;41.91;100238.84;5097109;28;761;-63
2022/04/25 00:22:46;;;;;;;;;;;;;;;17.44;43.51;100246.22;5096833;28;1046;-64
2022/04/25 00:25:12;;;;;;;;;;;;;;;17.82;44.74;100233.69;5099743;28;913;-64
2022/04/25 00:27:37;;;;;;;;;;;;;;;18.10;45.61;100231.94;5096928;28;881;-64
2022/04/25 00:30:03;;;;;;;;;;;;;;;18.30;46.36;100231.66;5096610;28;814;-63
2022/04/25 00:32:28;;;;;;;;;;;;;;;18.53;47.07;100233.78;5103193;28;877;-64
2022/04/25 00:34:54;;;;;;;;;;;;;;;18.69;47.39;100229.66;5096581;28;712;-64
2022/04/25 00:37:19;;;;;;;;;;;;;;;18.53;47.11;100231.84;5102808;28;1980;-64
2022/04/25 00:39:45;;;;;;;;;;;;;;;18.23;46.37;100230.38;5096918;28;878;-64
2022/04/25 00:42:10;;;;;;;;;;;;;;;18.08;44.88;100225.94;5097075;28;866;-64
2022/04/25 00:44:36;;;;;;;;;;;;;;;17.81;43.50;100223.78;5096595;28;853;-63
2022/04/25 00:47:02;;;;;;;;;;;;;;;17.54;42.02;100212.28;5100485;28;843;-64
2022/04/25 00:49:27;;;;;;;;;;;;;;;17.40;41.37;100222.34;5116153;28;833;-64
2022/04/25 00:51:53;;;;;;;;;;;;;;;17.26;40.40;100220.31;5096877;28;945;-64
2022/04/25 00:54:22;;;;;;;;;;;;;;;17.10;40.28;100213.34;5096563;28;806;-64
2022/04/25 00:56:48;;;;;;;;;;;;;;;16.99;39.81;100207.13;5096487;28;1909;-63
2022/04/25 00:59:17;;;;;;;;;;;;;;;16.90;39.54;100206.13;5096363;28;952;-63
2022/04/25 01:01:43;;;;;;;;;;;;;;;16.82;39.30;100206.75;5098074;28;861;-63
2022/04/25 01:04:09;;;;;;;;;;;;;;;16.85;39.58;100211.66;5104315;28;730;-64
2022/04/25 01:06:35;;;;;;;;;;;;;;;16.96;40.33;100213.22;5096067;28;734;-64
2022/04/25 01:09:00;;;;;;;;;;;;;;;17.10;41.43;100214.16;5096554;28;830;-63
2022/04/25 01:11:25;;;;;;;;;;;;;;;17.32;43.27;100215.59;5096443;28;849;-63
2022/04/25 01:13:51;;;;;;;;;;;;;;;17.76;45.92;100203.47;5095707;28;1070;-63
2022/04/25 01:16:17;;;;;;;;;;;;;;;18.22;47.08;100209.50;5099786;28;1968;-63
2022/04/25 01:18:42;;;;;;;;;;;;;;;18.54;47.59;100205.94;5097899;28;781;-63
2022/04/25 01:21:09;;;;;;;;;;;;;;;18.78;47.92;100200.31;5095887;28;901;-64
2022/04/25 01:29:02;;;;;;;;;;;;;;;17.39;46.10;100204.22;5095738;28;859;-63
2022/04/25 01:31:27;;;;;;;;;;;;;;;17.33;43.83;100199.91;5078166;28;892;-64
2022/04/25 01:33:53;;;;;;;;;;;;;;;17.20;42.09;100190.44;5102874;28;821;-64
2022/04/25 01:36:22;;;;;;;;;;;;;;;17.04;41.18;100182.38;5101463;28;1898;-63
2022/04/25 01:38:47;;;;;;;;;;;;;;;16.93;40.14;100187.16;5113507;28;1364;-63
2022/04/25 01:41:13;;;;;;;;;;;;;;;16.82;39.58;100188.31;5114374;28;827;-63
2022/04/25 01:43:38;;;;;;;;;;;;;;;16.78;39.22;100173.53;5113312;28;833;-63
2022/04/25 01:46:04;;;;;;;;;;;;;;;16.88;39.61;100184.44;5096189;28;830;-63
2022/04/25 01:48:30;;;;;;;;;;;;;;;17.03;40.61;100171.69;5101037;28;826;-63
2022/04/25 01:50:55;;;;;;;;;;;;;;;17.13;42.08;100168.81;5095924;28;749;-63
2022/04/25 01:53:21;;;;;;;;;;;;;;;17.30;43.04;100157.34;5096352;28;801;-63
2022/04/25 01:55:46;;;;;;;;;;;;;;;17.42;43.94;100155.00;5096348;28;758;-63
2022/04/25 01:58:12;;;;;;;;;;;;;;;17.55;44.51;100156.19;5096156;28;1913;-63
2022/04/25 02:00:37;;;;;;;;;;;;;;;17.67;44.71;100161.28;5099772;28;813;-63
2022/04/25 02:03:03;;;;;;;;;;;;;;;17.71;45.09;100167.81;5102601;28;789;-63
2022/04/25 02:05:28;;;;;;;;;;;;;;;17.78;45.17;100171.03;5099215;28;866;-63
2022/04/25 02:07:54;;;;;;;;;;;;;;;17.83;45.19;100166.56;5103831;28;880;-63
2022/04/25 02:10:19;;;;;;;;;;;;;;;17.88;45.46;100171.97;5099461;28;763;-63
2022/04/25 02:12:45;;;;;;;;;;;;;;;17.93;45.38;100171.94;5099113;28;996;-63
2022/04/25 02:15:13;;;;;;;;;;;;;;;17.98;45.28;100168.28;5099380;28;869;-63
2022/04/25 02:17:39;;;;;;;;;;;;;;;18.05;45.05;100161.31;5099275;28;1917;-64
2022/04/25 02:20:05;;;;;;;;;;;;;;;18.04;45.36;100156.09;5099832;28;852;-63
2022/04/25 02:22:31;;;;;;;;;;;;;;;18.05;45.24;100160.50;5099011;28;881;-63
2022/04/25 02:24:57;;;;;;;;;;;;;;;17.99;45.09;100170.72;5098824;28;849;-63
2022/04/25 02:27:23;;;;;;;;;;;;;;;17.89;44.36;100160.69;5099086;28;778;-63
2022/04/25 02:29:53;;;;;;;;;;;;;;;17.77;43.46;100163.88;5099140;28;762;-62
2022/04/25 02:32:19;;;;;;;;;;;;;;;17.61;42.20;100162.44;5104867;28;806;-61
2022/04/25 02:34:44;;;;;;;;;;;;;;;17.37;41.07;100163.28;5098979;28;923;-62
2022/04/25 02:37:09;;;;;;;;;;;;;;;17.23;40.43;100156.88;5099084;28;1982;-62
2022/04/25 02:39:35;;;;;;;;;;;;;;;17.11;40.20;100168.28;5099185;28;762;-62
2022/04/25 02:42:00;;;;;;;;;;;;;;;17.03;39.58;100164.25;5098434;28;1165;-62
2022/04/25 02:44:26;;;;;;;;;;;;;;;17.02;39.12;100165.34;5099503;28;733;-61
2022/04/25 02:46:51;;;;;;;;;;;;;;;17.09;40.41;100157.56;5101702;28;801;-61
2022/04/25 02:49:17;;;;;;;;;;;;;;;17.45;42.67;100159.91;5101266;28;769;-62
2022/04/25 02:51:43;;;;;;;;;;;;;;;17.83;44.26;100163.81;5098529;28;896;-62
2022/04/25 02:54:09;;;;;;;;;;;;;;;18.16;45.56;100161.13;5098680;28;875;-62
2022/04/25 02:56:34;;;;;;;;;;;;;;;18.40;46.60;100161.03;5099033;28;1976;-62
2022/04/25 02:59:00;;;;;;;;;;;;;;;18.61;46.74;100156.81;5102288;28;765;-62
2022/04/25 03:01:25;;;;;;;;;;;;;;;17.45;50.17;100165.41;5098273;28;794;-62
2022/04/25 03:03:51;;;;;;;;;;;;;;;17.21;49.27;100156.38;5102437;28;838;-62
2022/04/25 03:06:16;;;;;;;;;;;;;;;16.23;50.19;100168.25;5097812;28;813;-62
2022/04/25 03:08:41;;;;;;;;;;;;;;;16.94;46.07;100165.97;5098316;28;782;-62
2022/04/25 03:11:10;;;;;;;;;;;;;;;17.05;43.41;100161.22;5098466;28;1493;-62
2022/04/25 03:13:36;;;;;;;;;;;;;;;16.97;42.10;100157.19;5101843;28;1045;-62
2022/04/25 03:16:05;;;;;;;;;;;;;;;16.86;40.97;100161.94;5098446;28;770;-62
2022/04/25 03:18:30;;;;;;;;;;;;;;;16.88;40.69;100158.88;5100565;28;1909;-60
2022/04/25 03:20:56;;;;;;;;;;;;;;;17.02;42.06;100154.38;5097959;28;791;-61
2022/04/25 03:23:21;;;;;;;;;;;;;;;17.52;44.98;100148.56;5102798;28;837;-61
2022/04/25 03:25:47;;;;;;;;;;;;;;;18.03;46.97;100152.53;5117533;28;1425;-61
2022/04/25 03:28:13;;;;;;;;;;;;;;;18.45;47.31;100167.28;5116960;28;966;-60
2022/04/25 03:30:38;;;;;;;;;;;;;;;18.75;47.90;100158.78;5112922;28;1249;-62
2022/04/25 03:33:04;;;;;;;;;;;;;;;18.47;48.61;100162.28;5098530;28;878;-60
2022/04/25 03:35:30;;;;;;;;;;;;;;;17.15;50.01;100155.59;5099222;28;869;-60
2022/04/25 03:37:56;;;;;;;;;;;;;;;17.17;47.43;100155.31;5103873;28;1971;-60
2022/04/25 03:40:21;;;;;;;;;;;;;;;17.30;44.56;100157.34;5115777;28;861;-60
2022/04/25 03:42:47;;;;;;;;;;;;;;;17.26;43.13;100151.63;5116957;28;853;-60
2022/04/25 03:45:15;;;;;;;;;;;;;;;17.12;41.83;100158.13;5117399;28;937;-62
2022/04/25 03:47:40;;;;;;;;;;;;;;;17.03;41.29;100164.25;5099569;28;1273;-63
2022/04/25 03:50:08;;;;;;;;;;;;;;;16.95;40.70;100159.38;5100818;28;757;-59
2022/04/25 03:52:39;;;;;;;;;;;;;;;16.90;39.99;100164.94;5097641;28;912;-60
2022/04/25 03:57:53;;;;;;;;;;;;;;;17.12;41.74;100155.38;5116042;28;1909;-62
2022/04/25 04:00:18;;;;;;;;;;;;;;;17.28;42.79;100151.34;5117119;28;960;-62
2022/04/25 04:02:44;;;;;;;;;;;;;;;17.41;43.73;100164.34;5096537;28;894;-62
2022/04/25 04:05:10;;;;;;;;;;;;;;;17.50;44.14;100152.69;5097678;28;815;-62
2022/04/25 04:07:35;;;;;;;;;;;;;;;17.56;45.02;100152.34;5096962;28;826;-62
2022/04/25 04:10:01;;;;;;;;;;;;;;;17.68;45.27;100151.91;5097158;28;869;-62
2022/04/25 04:12:30;;;;;;;;;;;;;;;17.74;45.35;100145.22;5096972;28;1024;-62
2022/04/25 04:14:56;;;;;;;;;;;;;;;17.79;45.37;100153.41;5102580;28;856;-61
2022/04/25 04:17:21;;;;;;;;;;;;;;;17.88;45.39;100144.47;5100857;28;1909;-61
2022/04/25 04:19:47;;;;;;;;;;;;;;;17.93;45.42;100159.00;5098672;28;1269;-61
2022/04/25 04:22:12;;;;;;;;;;;;;;;17.97;45.76;100163.91;5100437;28;1292;-60
2022/04/25 04:24:38;;;;;;;;;;;;;;;17.95;45.45;100162.28;5099393;28;1341;-61
2022/04/25 04:27:03;;;;;;;;;;;;;;;17.97;45.58;100152.91;5101523;28;1509;-61
2022/04/25 04:29:29;;;;;;;;;;;;;;;18.06;45.45;100157.44;5095090;28;1319;-61
2022/04/25 04:31:56;;;;;;;;;;;;;;;18.08;45.47;100157.97;5099701;28;1354;-61
2022/04/25 04:34:22;;;;;;;;;;;;;;;18.10;45.35;100161.25;5096150;28;1464;-61
2022/04/25 04:36:47;;;;;;;;;;;;;;;18.11;45.38;100160.09;5077210;28;1976;-61
2022/04/25 04:39:13;;;;;;;;;;;;;;;18.19;45.51;100155.03;5084579;28;1401;-62
2022/04/25 04:41:38;;;;;;;;;;;;;;;18.20;45.64;100162.19;5096698;28;793;-62
2022/04/25 04:44:04;;;;;;;;;;;;;;;18.26;45.39;100159.06;5096726;28;912;-61
2022/04/25 04:46:29;;;;;;;;;;;;;;;18.29;45.84;100163.16;5096658;28;838;-63
2022/04/25 04:48:54;;;;;;;;;;;;;;;18.26;45.78;100158.25;5102709;28;946;-63
2022/04/25 04:51:20;;;;;;;;;;;;;;;18.20;45.02;100160.25;5098476;28;812;-63
2022/04/25 04:53:45;;;;;;;;;;;;;;;18.02;43.96;100170.16;5096803;28;809;-63
2022/04/25 04:56:11;;;;;;;;;;;;;;;17.81;42.72;100164.13;5096524;28;804;-63
2022/04/25 04:58:36;;;;;;;;;;;;;;;17.56;41.90;100157.84;5096769;28;1922;-61
2022/04/25 05:01:01;;;;;;;;;;;;;;;17.47;40.69;100156.03;5098324;28;1186;-64
2022/04/25 05:03:27;;;;;;;;;;;;;;;17.34;40.26;100163.88;5096543;28;883;-61
2022/04/25 05:05:53;;;;;;;;;;;;;;;17.17;39.74;100155.31;5102529;28;809;-62
2022/04/25 05:08:18;;;;;;;;;;;;;;;17.10;39.32;100156.47;5096647;28;873;-62
2022/04/25 05:10:44;;;;;;;;;;;;;;;17.01;39.43;100160.16;5096223;28;872;-62
2022/04/25 05:13:09;;;;;;;;;;;;;;;17.07;39.72;100170.00;5096482;28;1093;-63
2022/04/25 05:15:36;;;;;;;;;;;;;;;17.19;40.50;100175.06;5096160;28;762;-61
2022/04/25 05:18:01;;;;;;;;;;;;;;;17.33;41.58;100181.47;5102760;28;1992;-61
2022/04/25 05:20:27;;;;;;;;;;;;;;;17.45;42.64;100176.38;5096619;28;813;-61
2022/04/25 05:22:52;;;;;;;;;;;;;;;17.64;43.60;100174.78;5096396;28;758;-62
2022/04/25 05:25:18;;;;;;;;;;;;;;;17.72;43.85;100174.13;5095948;28;969;-61
2022/04/25 05:27:45;;;;;;;;;;;;;;;17.85;44.28;100167.91;5103050;28;1258;-63
2022/04/25 05:30:11;;;;;;;;;;;;;;;17.89;44.71;100160.69;5100025;28;1298;-62
2022/04/25 05:32:47;;;;;;;;;;;;;;;17.93;45.16;100163.69;5108339;28;843;-62
2022/04/25 05:35:13;;;;;;;;;;;;;;;18.04;45.10;100154.16;5099858;28;829;-61
2022/04/25 05:37:38;;;;;;;;;;;;;;;18.12;45.37;100161.75;5100598;28;1913;-62
2022/04/25 05:40:05;;;;;;;;;;;;;;;18.15;45.70;100170.53;5100159;28;766;-62
2022/04/25 05:42:30;;;;;;;;;;;;;;;18.22;45.57;100163.53;5102991;28;877;-60
2022/04/25 05:44:55;;;;;;;;;;;;;;;18.24;45.54;100171.47;5099821;28;727;-61
2022/04/25 05:47:21;;;;;;;;;;;;;;;18.07;45.23;100170.06;5106538;28;809;-63
2022/04/25 05:52:30;;;;;;;;;;;;;;;17.69;42.67;100161.78;5103847;28;777;-62
2022/04/25 05:54:56;;;;;;;;;;;;;;;17.51;41.49;100170.84;5118968;28;849;-61
2022/04/25 05:57:22;;;;;;;;;;;;;;;17.37;40.77;100155.06;5105298;28;1913;-60
2022/04/25 05:59:48;;;;;;;;;;;;;;;17.23;39.94;100162.38;5099471;28;873;-62
2022/04/25 06:02:16;;;;;;;;;;;;;;;17.09;39.52;100163.06;5099544;28;901;-63
2022/04/25 06:04:42;;;;;;;;;;;;;;;16.98;39.26;100171.72;5099798;28;790;-60
2022/04/25 06:07:08;;;;;;;;;;;;;;;16.99;39.37;100165.94;5099301;28;763;-60
2022/04/25 06:09:34;;;;;;;;;;;;;;;17.08;40.08;100171.59;5102626;28;895;-60
2022/04/25 06:12:02;;;;;;;;;;;;;;;17.32;42.13;100168.88;5099950;28;796;-60
2022/04/25 06:14:28;;;;;;;;;;;;;;;17.69;44.08;100161.78;5099334;28;1235;-59
2022/04/25 06:16:53;;;;;;;;;;;;;;;18.02;45.65;100159.16;5101835;28;1978;-60
2022/04/25 06:19:19;;;;;;;;;;;;;;;18.36;46.16;100169.06;5099856;28;956;-59
2022/04/25 06:21:44;;;;;;;;;;;;;;;18.60;46.87;100165.38;5104457;28;818;-62
2022/04/25 06:24:10;;;;;;;;;;;;;;;18.68;47.39;100167.44;5117704;28;1070;-60
2022/04/25 06:26:36;;;;;;;;;;;;;;;17.62;49.77;100169.59;5100144;28;1218;-62
2022/04/25 06:29:02;;;;;;;;;;;;;;;17.38;48.65;100170.44;5099130;28;858;-61
2022/04/25 06:31:27;;;;;;;;;;;;;;;16.28;49.83;100164.66;5099089;28;829;-60
2022/04/25 06:33:53;;;;;;;;;;;;;;;17.02;45.32;100165.34;5102120;28;970;-62
2022/04/25 06:36:18;;;;;;;;;;;;;;;17.10;43.31;100163.91;5099067;28;834;-61
2022/04/25 06:38:44;;;;;;;;;;;;;;;17.09;42.33;100154.81;5098576;28;1901;-61
2022/04/25 06:41:09;;;;;;;;;;;;;;;17.02;41.41;100165.34;5098958;28;793;-60
2022/04/25 06:43:36;;;;;;;;;;;;;;;17.12;41.42;100166.34;5099218;28;797;-62
2022/04/25 06:46:02;;;;;;;;;;;;;;;17.36;43.29;100167.19;5098389;28;802;-62
2022/04/25 06:48:28;;;;;;;;;;;;;;;17.80;46.17;100159.72;5099331;28;1155;-62
2022/04/25 06:50:55;;;;;;;;;;;;;;;18.16;47.44;100166.66;5098726;28;850;-63
2022/04/25 06:53:21;;;;;;;;;;;;;;;18.52;47.92;100163.31;5101648;28;1057;-62
2022/04/25 06:55:46;;;;;;;;;;;;;;;18.67;48.66;100148.47;5112430;28;1345;-61
2022/04/25 06:58:12;;;;;;;;;;;;;;;17.76;50.82;100159.47;5117848;28;1893;-62
2022/04/25 07:00:38;;;;;;;;;;;;;;;17.44;49.61;100163.75;5104374;28;977;-60
2022/04/25 07:03:04;;;;;;;;;;;;;;;16.02;50.87;100162.91;5105075;28;882;-59
2022/04/25 07:05:29;;;;;;;;;;;;;;;16.85;45.78;100164.97;5118347;28;743;-59
2022/04/25 07:07:55;;;;;;;;;;;;;;;17.01;43.42;100171.97;5118038;28;1333;-61
2022/04/25 07:10:20;;;;;;;;;;;;;;;16.98;42.19;100167.03;5117405;28;802;-62
2022/04/25 07:12:46;;;;;;;;;;;;;;;16.92;41.39;100162.72;5105869;28;1037;-61
2022/04/25 07:15:12;;;;;;;;;;;;;;;17.06;42.15;100163.66;5098405;28;778;-61
2022/04/25 07:17:37;;;;;;;;;;;;;;;17.44;44.66;100166.50;5097873;28;1901;-62
2022/04/25 07:20:03;;;;;;;;;;;;;;;17.94;47.55;100168.09;5098381;28;774;-61
2022/04/25 07:30:40;;;;;;;;;;;;;;;17.45;49.44;100154.41;5107999;28;1223;-60
2022/04/25 07:33:05;;;;;;;;;;;;;;;16.18;50.36;100157.31;5104296;28;859;-62
2022/04/25 07:35:31;;;;;;;;;;;;;;;16.84;45.97;100155.88;5098194;28;869;-61
2022/04/25 07:37:56;;;;;;;;;;;;;;;17.04;43.62;100154.91;5098403;28;1978;-59
2022/04/25 07:40:22;;;;;;;;;;;;;;;16.97;42.28;100145.34;5097894;28;1137;-60
2022/04/25 07:42:48;;;;;;;;;;;;;;;17.00;41.29;100144.78;5098081;28;741;-62
2022/04/25 07:45:13;;;;;;;;;;;;;;;16.89;40.69;100136.66;5097504;28;785;-61
2022/04/25 07:47:42;;;;;;;;;;;;;;;16.96;41.12;100129.97;5098564;28;1095;-61
2022/04/25 07:50:11;;;;;;;;;;;;;;;17.10;42.07;100126.25;5097604;28;1284;-60
2022/04/25 07:52:36;;;;;;;;;;;;;;;17.56;45.46;100133.09;5097815;28;1253;-63
2022/04/25 07:55:02;;;;;;;;;;;;;;;17.99;47.63;100129.47;5101251;28;1308;-62
2022/04/25 07:57:28;;;;;;;;;;;;;;;18.30;48.96;100129.00;5096867;28;1897;-61
2022/04/25 07:59:54;;;;;;;;;;;;;;;18.59;49.56;100127.94;5097042;28;795;-61
2022/04/25 08:02:20;;;;;;;;;;;;;;;18.80;49.43;100125.63;5111181;28;902;-62
2022/04/25 08:04:45;;;;;;;;;;;;;;;17.69;50.88;100120.53;5097793;28;789;-63
2022/04/25 08:07:11;;;;;;;;;;;;;;;17.36;48.94;100120.47;5097294;28;1087;-60
2022/04/25 08:09:37;;;;;;;;;;;;;;;16.10;50.04;100125.81;5096651;28;1355;-59
2022/04/25 08:20:14;;;;;;;;;;;;;;;16.93;40.86;100110.25;5097176;28;777;-61
2022/04/25 08:22:40;;;;;;;;;;;;;;;16.99;41.22;100113.75;5096813;28;802;-61
2022/04/25 08:25:07;;;;;;;;;;;;;;;17.28;43.19;100112.88;5096908;28;1031;-60
2022/04/25 08:27:33;;;;;;;;;;;;;;;17.78;47.04;100124.28;5097039;28;850;-61
2022/04/25 08:29:59;;;;;;;;;;;;;;;18.15;48.67;100121.81;5098674;28;870;-61
2022/04/25 08:32:24;;;;;;;;;;;;;;;18.37;49.44;100126.69;5096913;28;912;-61
2022/04/25 08:34:49;;;;;;;;;;;;;;;18.56;49.36;100117.53;5096975;28;774;-61
2022/04/25 08:37:16;;;;;;;;;;;;;;;18.26;48.03;100115.03;5096806;28;1974;-61
2022/04/25 08:39:41;;;;;;;;;;;;;;;18.01;45.75;100120.94;5096871;28;825;-61
2022/04/25 08:42:09;;;;;;;;;;;;;;;17.71;44.11;100120.25;5102572;28;921;-61
2022/04/25 08:44:34;;;;;;;;;;;;;;;17.52;42.55;100126.56;5096666;28;795;-60
2022/04/25 08:47:00;;;;;;;;;;;;;;;17.40;41.78;100124.25;5096870;28;836;-61
2022/04/25 08:49:25;;;;;;;;;;;;;;;17.24;41.09;100125.56;5096509;28;1171;-60
2022/04/25 08:51:58;;;;;;;;;;;;;;;17.15;40.28;100132.78;5096536;28;830;-61
2022/04/25 08:54:24;;;;;;;;;;;;;;;17.04;39.70;100132.94;5099220;28;1471;-60
2022/04/25 08:56:50;;;;;;;;;;;;;;;16.97;39.87;100145.34;5078236;28;1901;-61
2022/04/25 08:59:15;;;;;;;;;;;;;;;16.88;39.50;100139.66;5077372;28;1108;-61
2022/04/25 09:01:41;;;;;;;;;;;;;;;16.98;40.18;100144.25;5096305;28;886;-61
2022/04/25 09:04:06;;;;;;;;;;;;;;;17.14;41.58;100147.63;5115685;28;864;-61
2022/04/25 09:06:32;;;;;;;;;;;;;;;17.56;44.59;100137.78;5115774;28;770;-61
2022/04/25 09:08:57;;;;;;;;;;;;;;;18.02;47.12;100142.66;5098567;28;814;-61
2022/04/25 09:14:10;;;;;;;;;;;;;;;18.73;48.90;100137.06;5113914;28;988;-61
2022/04/25 09:16:37;;;;;;;;;;;;;;;18.78;48.95;100136.94;5120075;28;1901;-61
2022/04/25 09:19:02;;;;;;;;;;;;;;;18.47;47.38;100133.94;5119950;28;857;-61
2022/04/25 09:21:28;;;;;;;;;;;;;;;18.15;45.91;100129.25;5082554;28;855;-61
2022/04/25 09:23:53;;;;;;;;;;;;;;;17.89;43.83;100122.19;5100248;28;814;-61
2022/04/25 09:26:21;;;;;;;;;;;;;;;17.68;42.69;100121.66;5082651;28;943;-61
2022/04/25 09:28:46;;;;;;;;;;;;;;;17.52;41.61;100117.50;5099917;28;901;-61
2022/04/25 09:31:15;;;;;;;;;;;;;;;17.38;40.95;100098.97;5100182;28;1134;-61
2022/04/25 09:33:41;;;;;;;;;;;;;;;17.27;40.46;100101.03;5099597;28;1122;-61
2022/04/25 09:36:06;;;;;;;;;;;;;;;17.21;40.02;100106.91;5117856;28;1324;-61
2022/04/25 09:38:32;;;;;;;;;;;;;;;17.12;39.86;100087.50;5119131;28;1976;-61
2022/04/25 09:40:57;;;;;;;;;;;;;;;17.04;39.70;100088.97;5119819;28;876;-61
2022/04/25 09:43:29;;;;;;;;;;;;;;;16.95;39.55;100085.25;5120071;28;782;-60
2022/04/25 09:46:06;;;;;;;;;;;;;;;16.90;39.48;100094.38;5108129;28;776;-61
2022/04/25 09:48:31;;;;;;;;;;;;;;;17.03;40.29;100092.84;5099896;28;867;-61
2022/04/25 09:50:58;;;;;;;;;;;;;;;17.15;41.74;100097.09;5099742;28;740;-61
2022/04/25 09:53:24;;;;;;;;;;;;;;;17.29;42.64;100095.25;5104638;28;885;-61
2022/04/25 09:55:49;;;;;;;;;;;;;;;17.47;43.10;100084.59;5099233;28;1317;-61
2022/04/25 09:58:17;;;;;;;;;;;;;;;17.56;43.75;100082.81;5089301;28;1906;-61
2022/04/25 10:00:42;;;;;;;;;;;;;;;17.62;44.28;100081.63;5099301;28;1197;-61
2022/04/25 10:03:08;;;;;;;;;;;;;;;17.68;44.62;100091.41;5100831;28;1288;-62
2022/04/25 10:05:41;;;;;;;;;;;;;;;17.74;44.83;100090.22;5101801;28;1348;-62
2022/04/25 10:08:10;;;;;;;;;;;;;;;17.73;44.81;100082.28;5103957;28;1284;-62
2022/04/25 10:10:39;;;;;;;;;;;;;;;17.79;45.26;100095.66;5102881;28;1199;-63
2022/04/25 10:13:05;;;;;;;;;;;;;;;17.83;44.98;100086.81;5099463;28;1146;-61
2022/04/25 10:15:30;;;;;;;;;;;;;;;17.88;45.22;100079.28;5099328;28;897;-59
2022/04/25 10:17:56;;;;;;;;;;;;;;;17.93;45.13;100081.16;5098874;28;2051;-60
2022/04/25 10:20:22;;;;;;;;;;;;;;;17.94;45.44;100091.06;5098701;28;829;-61
2022/04/25 10:22:47;;;;;;;;;;;;;;;18.02;45.30;100092.31;5099933;28;885;-61
2022/04/25 10:25:13;;;;;;;;;;;;;;;18.01;45.08;100090.69;5103275;28;1245;-61
2022/04/25 10:27:39;;;;;;;;;;;;;;;18.05;45.25;100087.03;5105013;28;1214;-60
2022/04/25 10:30:09;;;;;;;;;;;;;;;18.10;45.05;100080.63;5118722;28;788;-61
2022/04/25 10:32:34;;;;;;;;;;;;;;;18.08;45.35;100083.66;5098037;28;1194;-62
2022/04/25 10:35:01;;;;;;;;;;;;;;;18.11;45.35;100091.31;5099209;28;806;-61
2022/04/25 10:37:27;;;;;;;;;;;;;;;18.18;45.42;100084.63;5085661;28;1917;-63
2022/04/25 10:39:52;;;;;;;;;;;;;;;18.19;45.13;100094.50;5098680;28;822;-62
2022/04/25 10:45:02;;;;;;;;;;;;;;;17.88;43.76;100081.22;5098600;28;838;-62
2022/04/25 10:47:28;;;;;;;;;;;;;;;17.71;42.34;100071.59;5103661;28;922;-62
2022/04/25 10:49:55;;;;;;;;;;;;;;;17.53;41.55;100072.38;5100077;28;852;-62
2022/04/25 10:52:52;;;;;;;;;;;;;;;17.47;40.78;100082.63;5098684;28;818;-62
2022/04/25 10:55:33;;;;;;;;;;;;;;;17.35;40.27;100077.59;5099030;28;828;-59
2022/04/25 10:58:01;;;;;;;;;;;;;;;17.23;39.94;100079.94;5112520;28;1913;-60
2022/04/25 11:00:36;;;;;;;;;;;;;;;17.19;39.89;100084.41;5117848;28;833;-61
2022/04/25 11:03:11;;;;;;;;;;;;;;;17.09;39.61;100082.59;5098175;28;861;-61
2022/04/25 11:05:42;;;;;;;;;;;;;;;17.03;39.48;100070.06;5098432;28;748;-59
2022/04/25 11:08:21;;;;;;;;;;;;;;;16.95;39.35;100070.69;5100055;28;1048;-62
2022/04/25 11:10:47;;;;;;;;;;;;;;;16.90;39.68;100066.06;5116228;28;838;-62
2022/04/25 11:13:13;;;;;;;;;;;;;;;16.99;40.93;100064.31;5117627;28;1114;-61
2022/04/25 11:15:38;;;;;;;;;;;;;;;17.40;42.41;100058.28;5100702;28;777;-61
2022/04/25 11:18:27;;;;;;;;;;;;;;;17.71;44.54;100060.59;5100038;28;1917;-61
2022/04/25 11:20:56;;;;;;;;;;;;;;;18.12;45.80;100067.38;5111115;28;813;-61
2022/04/25 11:23:29;;;;;;;;;;;;;;;18.33;47.06;100062.34;5117814;28;706;-63
2022/04/25 11:25:59;;;;;;;;;;;;;;;18.53;47.46;100065.84;5098251;28;810;-63
2022/04/25 11:28:25;;;;;;;;;;;;;;;18.59;47.67;100072.88;5098132;28;730;-63
2022/04/25 11:31:10;;;;;;;;;;;;;;;17.55;48.64;100065.47;5097341;28;1028;-62
2022/04/25 11:33:45;;;;;;;;;;;;;;;17.48;46.90;100058.75;5080362;28;1293;-62
2022/04/25 11:36:11;;;;;;;;;;;;;;;17.51;44.41;100058.13;5097737;28;725;-65
2022/04/25 11:41:24;;;;;;;;;;;;;;;17.34;41.91;100066.91;5097944;28;777;-63
2022/04/25 11:43:49;;;;;;;;;;;;;;;17.30;41.45;100060.34;5097244;28;773;-63
2022/04/25 11:46:15;;;;;;;;;;;;;;;17.21;40.89;100055.53;5079445;28;991;-62
2022/04/25 11:48:40;;;;;;;;;;;;;;;17.11;40.74;100050.19;5097461;28;861;-61
2022/04/25 11:51:06;;;;;;;;;;;;;;;17.04;40.53;100042.28;5097141;28;924;-61
2022/04/25 11:53:32;;;;;;;;;;;;;;;17.02;40.16;100046.44;5103628;28;770;-63
2022/04/25 11:56:01;;;;;;;;;;;;;;;16.97;39.88;100036.34;5097721;28;735;-62
2022/04/25 11:58:30;;;;;;;;;;;;;;;16.96;40.04;100036.59;5097108;28;1913;-62
2022/04/25 12:00:55;;;;;;;;;;;;;;;16.97;40.56;100039.09;5097543;28;845;-61
2022/04/25 12:03:23;;;;;;;;;;;;;;;17.09;41.61;100042.19;5083059;28;843;-60
2022/04/25 12:05:49;;;;;;;;;;;;;;;17.31;42.73;100040.03;5099492;28;872;-61
2022/04/25 12:16:29;;;;;;;;;;;;;;;17.76;45.35;100033.00;5088110;28;1293;-62
2022/04/25 12:18:57;;;;;;;;;;;;;;;17.86;45.60;100033.94;5085427;28;1889;-61
2022/04/25 12:21:25;;;;;;;;;;;;;;;17.90;45.62;100027.53;5116495;28;818;-61
2022/04/25 12:23:54;;;;;;;;;;;;;;;17.98;45.83;100033.50;5117285;28;810;-61
2022/04/25 12:26:32;;;;;;;;;;;;;;;18.07;45.84;100040.75;5116860;28;754;-61
2022/04/25 12:29:01;;;;;;;;;;;;;;;18.12;46.08;100028.88;5102692;28;1187;-64
2022/04/25 12:31:27;;;;;;;;;;;;;;;18.11;46.01;100025.28;5104146;28;850;-63
2022/04/25 12:33:52;;;;;;;;;;;;;;;18.22;46.00;100016.88;5096795;28;966;-62
2022/04/25 12:36:24;;;;;;;;;;;;;;;18.21;46.12;100032.53;5097228;28;853;-62
2022/04/25 12:38:50;;;;;;;;;;;;;;;18.22;45.74;100027.88;5100469;28;1980;-61
2022/04/25 12:41:34;;;;;;;;;;;;;;;18.13;45.18;100020.31;5111226;28;1230;-62
2022/04/25 12:44:00;;;;;;;;;;;;;;;17.92;43.90;100013.50;5108802;28;769;-61
2022/04/25 12:46:42;;;;;;;;;;;;;;;17.76;42.48;100022.00;5097164;28;850;-60
2022/04/25 12:49:11;;;;;;;;;;;;;;;17.62;41.31;100026.63;5096562;28;778;-64
2022/04/25 12:51:38;;;;;;;;;;;;;;;17.44;40.71;100015.34;5096762;28;730;-62
2022/04/25 12:54:04;;;;;;;;;;;;;;;17.31;40.39;100029.84;5087140;28;1119;-63
2022/04/25 12:56:34;;;;;;;;;;;;;;;17.22;40.12;100035.19;5102091;28;1032;-61
2022/04/25 12:58:59;;;;;;;;;;;;;;;17.16;39.61;100035.53;5096698;28;1906;-62
2022/04/25 13:01:37;;;;;;;;;;;;;;;17.09;39.57;100036.72;5096642;28;826;-61
2022/04/25 13:04:09;;;;;;;;;;;;;;;17.02;39.50;100019.78;5096361;28;1404;-61
2022/04/25 13:06:36;;;;;;;;;;;;;;;16.98;39.24;100026.97;5097256;28;929;-62
2022/04/25 13:09:02;;;;;;;;;;;;;;;17.10;40.08;100015.56;5103042;28;938;-63
2022/04/25 13:11:27;;;;;;;;;;;;;;;17.42;42.86;100020.31;5096192;28;838;-63
2022/04/25 13:13:53;;;;;;;;;;;;;;;18.02;45.39;100018.03;5096647;28;1171;-61
2022/04/25 13:16:18;;;;;;;;;;;;;;;18.35;47.16;100027.06;5096668;28;769;-62
2022/04/25 13:18:44;;;;;;;;;;;;;;;18.63;48.08;100032.59;5096579;28;1917;-62
2022/04/25 13:21:13;;;;;;;;;;;;;;;18.88;48.46;100033.25;5099149;28;958;-62
2022/04/25 13:23:39;;;;;;;;;;;;;;;18.84;48.29;100035.75;5096304;28;783;-62
2022/04/25 13:26:04;;;;;;;;;;;;;;;17.70;48.99;100036.16;5096296;28;854;-62
2022/04/25 13:28:30;;;;;;;;;;;;;;;17.36;47.16;100035.25;5079041;28;955;-63
2022/04/25 13:30:56;;;;;;;;;;;;;;;16.46;47.05;100034.97;5098827;28;1139;-63
2022/04/25 13:33:21;;;;;;;;;;;;;;;17.07;43.81;100058.19;5102027;28;992;-63